Impacts TAF Board INFO
FOR SITUATIONAL AWARENESS. NOT TO BE USED FOR FLIGHT PLANNING PURPOSES.
IDs:

KMIA - Miami Intl, FL, US

Issued at 0913 UTC 25 Nov 2017
Updated at 0937 UTC 25 Nov 2017
Potential Impact None Slight Moderate High
Time0909Z 25/10Z 25/11Z 25/12Z 25/13Z 25/14Z 25/15Z 25/16Z 25/17Z 25/18Z 25/19Z 25/20Z 25/21Z 25/22Z>>
Type OBS PRVL
  [TEMP]  
PRVL
  [TEMP]  
PRVL
  [TEMP]  
PRVL PRVL PRVL PRVL PRVL PRVL PRVL PRVL PRVL PRVL
VIS 10 >6 >6 >6 >6 >6 >6 >6 >6 >6 >6 >6 >6 >6
CIG 14 --
  [15]  
--
  [15]  
--
  [15]  
-- -- -- -- -- -- -- -- -- --
Cover BKN SCT
  [BKN]  
SCT
  [BKN]  
SCT
  [BKN]  
SCT SCT SCT SCT SCT SCT SCT SCT SCT SCT
FltCat MVFR VFR
  [MVFR]  
VFR
  [MVFR]  
VFR
  [MVFR]  
VFR VFR VFR VFR VFR VFR VFR VFR VFR VFR
WX -- --
  [--]  
--
  [--]  
--
  [--]  
-- -- -- -- -- -- -- -- -- --
WDir 350 VRB
[VRB]
VRB
[VRB]
VRB
[VRB]
VRB VRB VRB VRB 350 350 350 350 350 350
WSpd 3 3
  [3]  
3
  [3]  
3
  [3]  
3 3 3 3 6 6 6 6 6 6
WGst -- --
  [--]  
--
  [--]  
--
  [--]  
-- -- -- -- -- -- -- -- -- --

Raw TAF
KMIA 250913Z 2509/2612 VRB03KT P6SM FEW015 SCT250
  TEMPO 2509/2513 BKN015
  FM251700 35006KT P6SM SCT040 SCT250
  FM260000 VRB04KT P6SM FEW250


Raw METAR
KMIA 250909Z 35003KT 10SM BKN014 19/18 A2997 RMK AO2 T01940178 $
KMIA 250853Z 00000KT 10SM FEW015 19/18 A2996 RMK AO2 SLP146 T01940178 55001 $
KMIA 250753Z 00000KT 10SM FEW015 19/18 A2996 RMK AO2 SLP145 T01940178 $
KMIA 250653Z 33004KT 10SM FEW015 20/18 A2996 RMK AO2 SLP144 T02000178 $

METAR Board
Radar Display
Forecast Discussion

FOR SITUATIONAL AWARENESS. NOT TO BE USED FOR FLIGHT PLANNING PURPOSES.